Time;durP1;ratioP1;P1;durP2;ratioP2;P2;SDS_P1;SDS_P2;PMS_P1;PMS_P2;Temp;Humidity;BMP_temperature;BMP_pressure;BME280_temperature;BME280_humidity;BME280_pressure;Samples;Min_cycle;Max_cycle;Signal;HPM_P1;HPM_P2
2022/04/14 00:01:46;;;;;;;;;;;12.10;55.00;;;;;;5048477;28;87816;-50
2022/04/14 00:04:12;;;;;;;;;;;12.10;55.00;;;;;;5049255;28;87777;-49
2022/04/14 00:06:38;;;;;;;;;;;12.00;54.90;;;;;;5050357;28;88685;-49
2022/04/14 00:09:03;;;;;;;;;;;12.00;54.90;;;;;;5048807;28;87686;-49
2022/04/14 00:11:29;;;;;;;;;;;12.00;55.00;;;;;;5048672;28;87697;-49
2022/04/14 00:13:56;;;;;;;;;;;12.00;55.00;;;;;;5048976;28;86883;-51
2022/04/14 00:16:22;;;;;;;;;;;12.00;55.00;;;;;;5049110;28;87863;-49
2022/04/14 00:18:47;;;;;;;;;;;11.90;55.10;;;;;;5049266;28;86012;-49
2022/04/14 00:21:14;;;;;;;;;;;11.90;55.10;;;;;;5048955;28;86857;-49
2022/04/14 00:23:39;;;;;;;;;;;11.90;55.10;;;;;;5048949;28;87822;-49
2022/04/14 00:26:05;;;;;;;;;;;11.90;55.10;;;;;;5048057;28;88286;-49
2022/04/14 00:28:32;;;;;;;;;;;11.90;55.10;;;;;;5051559;28;86887;-49
2022/04/14 00:30:59;;;;;;;;;;;11.90;55.00;;;;;;5048356;28;87678;-49
2022/04/14 00:33:25;;;;;;;;;;;11.80;55.10;;;;;;5048459;28;86958;-50
2022/04/14 00:35:52;;;;;;;;;;;11.80;55.00;;;;;;5048692;28;87042;-49
2022/04/14 00:38:18;;;;;;;;;;;11.80;55.10;;;;;;5048191;28;88449;-49
2022/04/14 00:40:43;;;;;;;;;;;11.80;55.10;;;;;;5048907;28;86772;-49
2022/04/14 00:43:09;;;;;;;;;;;11.70;55.00;;;;;;5049124;28;87802;-50
2022/04/14 00:45:34;;;;;;;;;;;11.70;55.00;;;;;;5047778;28;87645;-49
2022/04/14 00:48:00;;;;;;;;;;;11.70;55.00;;;;;;5047548;28;87047;-49
2022/04/14 00:50:26;;;;;;;;;;;11.70;55.10;;;;;;5050296;28;88130;-50
2022/04/14 00:52:53;;;;;;;;;;;11.70;55.20;;;;;;5047977;28;86984;-50
2022/04/14 00:55:19;;;;;;;;;;;11.70;55.20;;;;;;5048419;28;86898;-50
2022/04/14 00:57:45;;;;;;;;;;;11.60;55.20;;;;;;5048194;28;87434;-50
2022/04/14 01:00:11;;;;;;;;;;;11.60;55.20;;;;;;5048440;28;86866;-50
2022/04/14 01:02:37;;;;;;;;;;;11.60;55.20;;;;;;5047802;28;87975;-50
2022/04/14 01:05:06;;;;;;;;;;;11.60;55.20;;;;;;5047657;28;88601;-50
2022/04/14 01:07:35;;;;;;;;;;;11.60;55.20;;;;;;5048294;28;86012;-49
2022/04/14 01:10:03;;;;;;;;;;;11.50;55.10;;;;;;5048091;28;87509;-49
2022/04/14 01:12:30;;;;;;;;;;;11.50;55.10;;;;;;5050603;28;87580;-49
2022/04/14 01:14:56;;;;;;;;;;;11.50;55.10;;;;;;5047437;28;88056;-49
2022/04/14 01:17:21;;;;;;;;;;;11.50;55.10;;;;;;5047038;28;87616;-50
2022/04/14 01:19:47;;;;;;;;;;;11.50;55.10;;;;;;5047935;28;86863;-50
2022/04/14 01:22:16;;;;;;;;;;;11.50;55.10;;;;;;5048011;28;87037;-49
2022/04/14 01:24:41;;;;;;;;;;;11.50;55.20;;;;;;5047461;28;88516;-50
2022/04/14 01:27:07;;;;;;;;;;;11.50;55.20;;;;;;5047780;28;87106;-49
2022/04/14 01:29:34;;;;;;;;;;;11.40;55.10;;;;;;5047837;28;88222;-49
2022/04/14 01:32:01;;;;;;;;;;;11.40;55.10;;;;;;5050791;28;87904;-49
2022/04/14 01:34:29;;;;;;;;;;;11.40;55.20;;;;;;5047820;28;87289;-49
2022/04/14 01:37:00;;;;;;;;;;;11.40;55.90;;;;;;5047326;28;88636;-50
2022/04/14 01:39:26;;;;;;;;;;;11.30;55.30;;;;;;5046763;28;87807;-49
2022/04/14 01:41:53;;;;;;;;;;;11.40;55.30;;;;;;5047701;28;87827;-49
2022/04/14 01:44:19;;;;;;;;;;;11.30;55.10;;;;;;5047216;28;87603;-50
2022/04/14 01:46:44;;;;;;;;;;;11.30;55.20;;;;;;5047569;28;86879;-50
2022/04/14 01:49:11;;;;;;;;;;;11.30;55.20;;;;;;5047309;28;88051;-50
2022/04/14 01:51:37;;;;;;;;;;;11.30;55.30;;;;;;5047066;28;88609;-50
2022/04/14 01:54:03;;;;;;;;;;;11.30;55.30;;;;;;5050567;28;87163;-50
2022/04/14 01:56:29;;;;;;;;;;;11.30;55.30;;;;;;5047881;28;86674;-49
2022/04/14 01:58:55;;;;;;;;;;;11.20;55.20;;;;;;5046294;27;86948;-49
2022/04/14 02:01:21;;;;;;;;;;;11.20;55.20;;;;;;5046057;28;88158;-49
2022/04/14 02:03:47;;;;;;;;;;;11.20;55.30;;;;;;5044944;28;88533;-50
2022/04/14 02:06:13;;;;;;;;;;;11.20;55.30;;;;;;5046388;28;86949;-49
2022/04/14 02:08:39;;;;;;;;;;;11.10;55.40;;;;;;5045873;28;88143;-49
2022/04/14 02:11:05;;;;;;;;;;;11.10;55.30;;;;;;5046783;28;87451;-49
2022/04/14 02:13:31;;;;;;;;;;;11.10;55.40;;;;;;5047182;28;86869;-49
2022/04/14 02:15:57;;;;;;;;;;;11.10;55.40;;;;;;5048953;28;87975;-49
2022/04/14 02:18:23;;;;;;;;;;;11.10;55.40;;;;;;5046944;28;86905;-49
2022/04/14 02:20:48;;;;;;;;;;;11.00;55.40;;;;;;5047735;28;86686;-50
2022/04/14 02:23:14;;;;;;;;;;;11.00;55.40;;;;;;5046642;28;88402;-50
2022/04/14 02:25:40;;;;;;;;;;;11.00;55.30;;;;;;5047120;28;86846;-49
2022/04/14 02:28:05;;;;;;;;;;;11.00;55.40;;;;;;5045844;28;88010;-50
2022/04/14 02:30:33;;;;;;;;;;;11.00;55.30;;;;;;5046555;28;87292;-49
2022/04/14 02:32:59;;;;;;;;;;;11.00;55.40;;;;;;5046845;28;86891;-50
2022/04/14 02:35:25;;;;;;;;;;;10.90;55.40;;;;;;5046891;28;86865;-49
2022/04/14 02:37:50;;;;;;;;;;;10.90;55.40;;;;;;5049500;28;87435;-50
2022/04/14 02:40:16;;;;;;;;;;;10.90;55.40;;;;;;5046827;28;86856;-49
2022/04/14 02:42:42;;;;;;;;;;;10.90;55.30;;;;;;5045131;28;87477;-49
2022/04/14 02:45:08;;;;;;;;;;;10.90;55.40;;;;;;5045872;28;86186;-49
2022/04/14 02:47:35;;;;;;;;;;;10.90;55.40;;;;;;5045437;28;86868;-49
2022/04/14 02:50:01;;;;;;;;;;;10.90;55.40;;;;;;5045922;28;87726;-49
2022/04/14 02:52:26;;;;;;;;;;;10.80;55.40;;;;;;5046196;28;87816;-50
2022/04/14 02:54:53;;;;;;;;;;;10.80;55.50;;;;;;5046667;28;87770;-49
2022/04/14 02:57:18;;;;;;;;;;;10.80;55.40;;;;;;5046344;28;87423;-51
2022/04/14 02:59:44;;;;;;;;;;;10.70;55.40;;;;;;5049472;28;86835;-50
2022/04/14 03:02:10;;;;;;;;;;;10.80;55.50;;;;;;5046031;28;88467;-50
2022/04/14 03:04:35;;;;;;;;;;;10.70;55.40;;;;;;5046153;28;87041;-49
2022/04/14 03:07:01;;;;;;;;;;;10.70;55.50;;;;;;5046347;28;87835;-49
2022/04/14 03:09:26;;;;;;;;;;;10.70;55.50;;;;;;5046310;28;87861;-51
2022/04/14 03:11:52;;;;;;;;;;;10.70;55.60;;;;;;5045730;28;86798;-50
2022/04/14 03:14:18;;;;;;;;;;;10.70;55.60;;;;;;5046285;28;87829;-49
2022/04/14 03:16:43;;;;;;;;;;;10.60;55.50;;;;;;5044709;28;89247;-49
2022/04/14 03:19:09;;;;;;;;;;;10.60;55.50;;;;;;5046062;28;87095;-50
2022/04/14 03:21:35;;;;;;;;;;;10.60;55.60;;;;;;5048808;28;86879;-50
2022/04/14 03:24:00;;;;;;;;;;;10.60;55.50;;;;;;5046245;28;86867;-50
2022/04/14 03:26:26;;;;;;;;;;;10.50;55.60;;;;;;5046227;28;87822;-49
2022/04/14 03:28:52;;;;;;;;;;;10.50;55.60;;;;;;5044673;28;87813;-50
2022/04/14 03:31:17;;;;;;;;;;;10.50;55.60;;;;;;5045885;28;86940;-50
2022/04/14 03:33:43;;;;;;;;;;;10.50;55.60;;;;;;5045798;28;86336;-49
2022/04/14 03:36:08;;;;;;;;;;;10.50;55.60;;;;;;5045684;28;88531;-50
2022/04/14 03:38:34;;;;;;;;;;;10.40;55.70;;;;;;5045705;28;87045;-50
2022/04/14 03:41:02;;;;;;;;;;;10.40;55.70;;;;;;5047417;28;87795;-50
2022/04/14 03:43:28;;;;;;;;;;;10.40;55.60;;;;;;5045871;28;87050;-50
2022/04/14 03:45:54;;;;;;;;;;;10.40;55.60;;;;;;5046269;28;86906;-49
2022/04/14 03:48:20;;;;;;;;;;;10.40;55.80;;;;;;5045730;28;87499;-49
2022/04/14 03:50:46;;;;;;;;;;;10.30;55.60;;;;;;5045847;28;86912;-50
2022/04/14 03:53:12;;;;;;;;;;;10.30;55.70;;;;;;5045813;28;88061;-49
2022/04/14 03:55:37;;;;;;;;;;;10.40;55.70;;;;;;5045386;28;88777;-49
2022/04/14 03:58:03;;;;;;;;;;;10.40;55.60;;;;;;5046151;28;86107;-49
2022/04/14 04:00:28;;;;;;;;;;;10.30;55.60;;;;;;5045865;28;87327;-49
2022/04/14 04:02:54;;;;;;;;;;;10.30;55.70;;;;;;5047870;28;86812;-49
2022/04/14 04:05:20;;;;;;;;;;;10.30;56.30;;;;;;5045459;28;87851;-49
2022/04/14 04:07:45;;;;;;;;;;;10.20;55.70;;;;;;5045126;28;88648;-49
2022/04/14 04:10:12;;;;;;;;;;;10.20;55.60;;;;;;5045621;28;87095;-53
2022/04/14 04:12:38;;;;;;;;;;;10.20;55.70;;;;;;5045621;28;87112;-51
2022/04/14 04:15:04;;;;;;;;;;;10.20;55.70;;;;;;5045529;28;87510;-49
2022/04/14 04:17:30;;;;;;;;;;;10.20;55.70;;;;;;5045774;28;87242;-49
2022/04/14 04:19:55;;;;;;;;;;;10.20;55.80;;;;;;5045733;28;87125;-49
2022/04/14 04:22:21;;;;;;;;;;;10.10;55.70;;;;;;5046046;27;86961;-49
2022/04/14 04:24:47;;;;;;;;;;;10.10;55.70;;;;;;5051871;28;86983;-49
2022/04/14 04:27:12;;;;;;;;;;;10.10;55.70;;;;;;5048169;28;88742;-50
2022/04/14 04:29:38;;;;;;;;;;;10.10;55.70;;;;;;5048064;28;87807;-49
2022/04/14 04:32:04;;;;;;;;;;;10.10;55.70;;;;;;5048808;28;89068;-49
2022/04/14 04:34:30;;;;;;;;;;;10.10;55.60;;;;;;5048645;28;87751;-51
2022/04/14 04:36:55;;;;;;;;;;;10.10;55.70;;;;;;5048734;28;86851;-51
2022/04/14 04:39:21;;;;;;;;;;;10.10;55.70;;;;;;5048562;28;87684;-51
2022/04/14 04:41:47;;;;;;;;;;;10.00;55.80;;;;;;5048655;28;87658;-51
2022/04/14 04:44:12;;;;;;;;;;;10.00;55.70;;;;;;5048560;28;87004;-51
2022/04/14 04:46:38;;;;;;;;;;;10.00;55.80;;;;;;5051372;28;88042;-51
2022/04/14 04:49:03;;;;;;;;;;;10.00;55.70;;;;;;5047888;28;86790;-51
2022/04/14 04:51:29;;;;;;;;;;;10.00;55.70;;;;;;5048439;28;87258;-50
2022/04/14 04:53:55;;;;;;;;;;;10.00;55.80;;;;;;5046928;28;89397;-51
2022/04/14 04:56:20;;;;;;;;;;;10.00;55.80;;;;;;5047735;28;86858;-52
2022/04/14 04:58:46;;;;;;;;;;;9.90;55.70;;;;;;5047394;28;86903;-49
2022/04/14 05:01:12;;;;;;;;;;;9.90;55.60;;;;;;5047848;28;86941;-49
2022/04/14 05:03:37;;;;;;;;;;;9.90;55.70;;;;;;5048012;28;86878;-51
2022/04/14 05:06:03;;;;;;;;;;;9.90;55.70;;;;;;5047934;28;88098;-50
2022/04/14 05:08:29;;;;;;;;;;;9.90;55.70;;;;;;5050368;28;88506;-53
2022/04/14 05:10:54;;;;;;;;;;;9.90;55.70;;;;;;5048215;28;86750;-52
2022/04/14 05:13:20;;;;;;;;;;;9.90;55.70;;;;;;5047455;28;87667;-50
2022/04/14 05:15:46;;;;;;;;;;;9.90;55.90;;;;;;5047299;28;87107;-51
2022/04/14 05:18:11;;;;;;;;;;;9.80;55.80;;;;;;5047372;28;87772;-51
2022/04/14 05:20:38;;;;;;;;;;;9.90;55.80;;;;;;5047192;28;87770;-49
2022/04/14 05:23:06;;;;;;;;;;;9.90;55.80;;;;;;5047549;28;86887;-52
2022/04/14 05:25:32;;;;;;;;;;;9.90;55.70;;;;;;5047581;28;88078;-51
2022/04/14 05:27:58;;;;;;;;;;;9.90;55.70;;;;;;5046951;28;87940;-49
2022/04/14 05:30:23;;;;;;;;;;;9.90;55.60;;;;;;5050278;28;86996;-49
2022/04/14 05:32:49;;;;;;;;;;;9.90;55.80;;;;;;5046909;27;88590;-49
2022/04/14 05:35:14;;;;;;;;;;;9.90;55.70;;;;;;5047370;28;86235;-50
2022/04/14 05:37:40;;;;;;;;;;;9.90;55.70;;;;;;5047298;28;87001;-49
2022/04/14 05:40:06;;;;;;;;;;;9.80;55.70;;;;;;5047140;28;86857;-50
2022/04/14 05:42:31;;;;;;;;;;;9.90;55.80;;;;;;5046675;28;87867;-50
2022/04/14 05:45:00;;;;;;;;;;;9.80;55.80;;;;;;5046853;28;87853;-49
2022/04/14 05:47:26;;;;;;;;;;;9.90;55.90;;;;;;5047023;28;87274;-50
2022/04/14 05:49:52;;;;;;;;;;;9.90;56.00;;;;;;5050027;28;86838;-50
2022/04/14 05:52:18;;;;;;;;;;;9.80;55.70;;;;;;5028218;28;87796;-49
2022/04/14 05:54:47;;;;;;;;;;;9.80;55.80;;;;;;5047046;28;86855;-49
2022/04/14 05:57:13;;;;;;;;;;;9.90;55.80;;;;;;5046907;28;88178;-50
2022/04/14 05:59:39;;;;;;;;;;;9.80;56.50;;;;;;5047486;28;87362;-50
2022/04/14 06:02:04;;;;;;;;;;;9.80;55.90;;;;;;5047015;28;86848;-49
2022/04/14 06:04:30;;;;;;;;;;;9.80;56.00;;;;;;5047085;28;86825;-51
2022/04/14 06:06:55;;;;;;;;;;;9.80;56.00;;;;;;5044975;28;87888;-49
2022/04/14 06:09:21;;;;;;;;;;;9.80;56.00;;;;;;5046596;28;86836;-51
2022/04/14 06:11:47;;;;;;;;;;;9.80;56.10;;;;;;5049575;28;86868;-50
2022/04/14 06:14:12;;;;;;;;;;;9.80;56.10;;;;;;5046798;28;86985;-49
2022/04/14 06:16:38;;;;;;;;;;;9.80;56.00;;;;;;5046540;28;88280;-49
2022/04/14 06:19:03;;;;;;;;;;;9.80;56.00;;;;;;5046351;28;88504;-49
2022/04/14 06:21:29;;;;;;;;;;;9.80;56.10;;;;;;5046598;28;86924;-51
2022/04/14 06:23:56;;;;;;;;;;;9.80;56.10;;;;;;5047023;28;87000;-49
2022/04/14 06:26:22;;;;;;;;;;;9.80;56.10;;;;;;5046178;28;86863;-51
2022/04/14 06:28:47;;;;;;;;;;;9.80;56.10;;;;;;5046352;27;86870;-49
2022/04/14 06:31:14;;;;;;;;;;;9.80;56.10;;;;;;5046162;28;88130;-51
2022/04/14 06:33:39;;;;;;;;;;;9.80;56.10;;;;;;5049582;28;88466;-51
2022/04/14 06:36:05;;;;;;;;;;;9.80;56.00;;;;;;5046986;28;87939;-51
2022/04/14 06:38:31;;;;;;;;;;;9.80;56.10;;;;;;5046578;28;87663;-52
2022/04/14 06:40:56;;;;;;;;;;;9.80;56.20;;;;;;5047071;28;86906;-51
2022/04/14 06:43:24;;;;;;;;;;;9.80;56.30;;;;;;5046941;28;86716;-51
2022/04/14 06:45:50;;;;;;;;;;;9.80;56.30;;;;;;5045482;27;88580;-51
2022/04/14 06:48:16;;;;;;;;;;;9.80;56.20;;;;;;5047172;28;86161;-51
2022/04/14 06:50:42;;;;;;;;;;;9.80;56.30;;;;;;5046991;28;86978;-51
2022/04/14 06:53:08;;;;;;;;;;;9.80;56.30;;;;;;5046239;28;88348;-49
2022/04/14 06:55:35;;;;;;;;;;;9.80;56.30;;;;;;5049283;28;87924;-49
2022/04/14 06:58:02;;;;;;;;;;;9.80;56.80;;;;;;5046114;28;88841;-51
2022/04/14 07:00:28;;;;;;;;;;;9.80;56.30;;;;;;5046607;28;86873;-51
2022/04/14 07:02:55;;;;;;;;;;;9.80;56.10;;;;;;5046515;28;87789;-51
2022/04/14 07:05:22;;;;;;;;;;;9.80;56.80;;;;;;5046091;28;88808;-51
2022/04/14 07:07:48;;;;;;;;;;;9.80;56.30;;;;;;5046364;28;86899;-48
2022/04/14 07:10:14;;;;;;;;;;;9.80;56.30;;;;;;5046766;28;87417;-51
2022/04/14 07:12:40;;;;;;;;;;;9.80;56.30;;;;;;5046591;28;87414;-49
2022/04/14 07:15:06;;;;;;;;;;;9.80;56.30;;;;;;5046432;28;87215;-49
2022/04/14 07:17:33;;;;;;;;;;;9.80;56.30;;;;;;5049246;28;86911;-51
2022/04/14 07:20:00;;;;;;;;;;;9.80;56.20;;;;;;5045797;28;87772;-51
2022/04/14 07:22:25;;;;;;;;;;;9.90;56.30;;;;;;5046492;28;87695;-51
2022/04/14 07:24:51;;;;;;;;;;;9.90;56.30;;;;;;5045806;28;87730;-51
2022/04/14 07:27:19;;;;;;;;;;;9.90;56.30;;;;;;5045784;28;86855;-49
2022/04/14 07:29:48;;;;;;;;;;;9.90;56.20;;;;;;5046091;28;87127;-50
2022/04/14 07:32:14;;;;;;;;;;;9.90;56.30;;;;;;5045805;28;88436;-49
2022/04/14 07:34:40;;;;;;;;;;;9.90;56.30;;;;;;5046142;28;87192;-49
2022/04/14 07:37:06;;;;;;;;;;;9.90;56.20;;;;;;5048997;28;87712;-49
2022/04/14 07:39:32;;;;;;;;;;;9.90;56.20;;;;;;5046036;28;86971;-51
2022/04/14 07:41:58;;;;;;;;;;;9.90;56.30;;;;;;5046171;28;87891;-51
2022/04/14 07:44:23;;;;;;;;;;;9.90;56.30;;;;;;5044877;28;89615;-49
2022/04/14 07:46:50;;;;;;;;;;;9.90;56.30;;;;;;5046278;28;86808;-48
2022/04/14 07:49:15;;;;;;;;;;;9.90;56.30;;;;;;5045946;28;87897;-51
2022/04/14 07:51:41;;;;;;;;;;;9.90;56.30;;;;;;5045616;28;88595;-51
2022/04/14 07:54:07;;;;;;;;;;;9.90;56.30;;;;;;5045829;28;87116;-49
2022/04/14 07:56:33;;;;;;;;;;;9.90;56.20;;;;;;5046563;27;86841;-49
2022/04/14 07:58:59;;;;;;;;;;;9.90;56.20;;;;;;5051889;28;87823;-51
2022/04/14 08:01:25;;;;;;;;;;;9.90;56.20;;;;;;5049937;28;88030;-51
2022/04/14 08:03:51;;;;;;;;;;;9.90;56.20;;;;;;5048734;28;88292;-52
2022/04/14 08:06:17;;;;;;;;;;;10.00;56.30;;;;;;5049111;28;86992;-52
2022/04/14 08:08:43;;;;;;;;;;;9.90;56.20;;;;;;5048298;28;87896;-52
2022/04/14 08:11:10;;;;;;;;;;;9.90;56.20;;;;;;5047761;28;87506;-51
2022/04/14 08:13:41;;;;;;;;;;;9.90;56.30;;;;;;5048812;28;86888;-54
2022/04/14 08:16:09;;;;;;;;;;;10.00;56.30;;;;;;5048941;28;88009;-49
2022/04/14 08:18:36;;;;;;;;;;;10.00;56.30;;;;;;5048712;28;88087;-51
2022/04/14 08:21:02;;;;;;;;;;;10.00;56.30;;;;;;5051715;28;86908;-51
2022/04/14 08:23:28;;;;;;;;;;;10.00;56.40;;;;;;5048417;28;88760;-51
2022/04/14 08:25:53;;;;;;;;;;;10.00;56.40;;;;;;5049760;28;86205;-51
2022/04/14 08:28:19;;;;;;;;;;;10.00;56.40;;;;;;5048674;28;87006;-49
2022/04/14 08:30:45;;;;;;;;;;;10.00;56.40;;;;;;5048579;28;87620;-51
2022/04/14 08:33:12;;;;;;;;;;;10.00;56.30;;;;;;5048059;28;88238;-51
2022/04/14 08:35:38;;;;;;;;;;;10.00;56.30;;;;;;5048722;28;87986;-51
2022/04/14 08:38:04;;;;;;;;;;;10.00;56.30;;;;;;5048287;28;88787;-49
2022/04/14 08:40:34;;;;;;;;;;;10.00;56.30;;;;;;5048844;28;87336;-49
2022/04/14 08:43:01;;;;;;;;;;;10.00;56.30;;;;;;5051162;28;87906;-51
2022/04/14 08:45:31;;;;;;;;;;;10.00;56.40;;;;;;5048949;28;86857;-51
2022/04/14 08:48:00;;;;;;;;;;;10.00;56.40;;;;;;5048654;28;87126;-51
2022/04/14 08:50:27;;;;;;;;;;;10.10;56.40;;;;;;5048724;28;86877;-51
2022/04/14 08:52:53;;;;;;;;;;;10.10;56.40;;;;;;5048458;28;87046;-51
2022/04/14 08:55:19;;;;;;;;;;;10.10;56.40;;;;;;5048577;28;87817;-51
2022/04/14 08:57:45;;;;;;;;;;;10.10;56.40;;;;;;5047392;28;89573;-51
2022/04/14 09:00:13;;;;;;;;;;;10.10;56.50;;;;;;5048331;28;86945;-49
2022/04/14 09:02:39;;;;;;;;;;;10.10;56.40;;;;;;5048327;28;87885;-49
2022/04/14 09:05:05;;;;;;;;;;;10.10;56.40;;;;;;5050840;28;87657;-51
2022/04/14 09:07:31;;;;;;;;;;;10.10;56.40;;;;;;5048343;27;87766;-49
2022/04/14 09:09:57;;;;;;;;;;;10.10;56.40;;;;;;5043308;28;88718;-49
2022/04/14 09:12:23;;;;;;;;;;;10.10;56.40;;;;;;5048228;28;86899;-49
2022/04/14 09:14:49;;;;;;;;;;;10.10;56.50;;;;;;5048986;28;87389;-49
2022/04/14 09:17:15;;;;;;;;;;;10.20;56.40;;;;;;5047899;28;88130;-51
2022/04/14 09:19:41;;;;;;;;;;;10.20;56.40;;;;;;5048076;28;87339;-49
2022/04/14 09:22:07;;;;;;;;;;;10.20;56.50;;;;;;5047538;28;87939;-51
2022/04/14 09:24:40;;;;;;;;;;;10.20;56.40;;;;;;5047565;28;87714;-51
2022/04/14 09:27:07;;;;;;;;;;;10.20;56.40;;;;;;5047298;28;86963;-51
2022/04/14 09:29:32;;;;;;;;;;;10.20;56.30;;;;;;5039264;28;88416;-52
2022/04/14 09:31:58;;;;;;;;;;;10.20;56.40;;;;;;5048065;28;87109;-53
2022/04/14 09:34:51;;;;;;;;;;;10.20;56.40;;;;;;5047701;28;87817;-51
2022/04/14 09:37:17;;;;;;;;;;;10.30;56.40;;;;;;5047461;28;87619;-51
2022/04/14 09:39:53;;;;;;;;;;;10.30;56.40;;;;;;5048237;28;86432;-51
2022/04/14 09:42:20;;;;;;;;;;;10.30;56.30;;;;;;5047638;28;86899;-51
2022/04/14 09:44:45;;;;;;;;;;;10.30;56.20;;;;;;5047081;28;89018;-51
2022/04/14 09:47:11;;;;;;;;;;;10.30;56.20;;;;;;5049986;28;87903;-51
2022/04/14 09:49:40;;;;;;;;;;;10.30;56.10;;;;;;5047085;28;88464;-51
2022/04/14 09:52:08;;;;;;;;;;;10.40;56.20;;;;;;5047835;28;86878;-51
2022/04/14 09:54:34;;;;;;;;;;;10.40;56.20;;;;;;5047767;28;86836;-51
2022/04/14 09:56:59;;;;;;;;;;;10.40;56.10;;;;;;5047338;28;87495;-51
2022/04/14 09:59:26;;;;;;;;;;;10.40;56.10;;;;;;5047326;28;86868;-51
2022/04/14 10:02:07;;;;;;;;;;;10.40;56.10;;;;;;5047394;28;87923;-51
2022/04/14 10:04:33;;;;;;;;;;;10.40;56.10;;;;;;5047413;28;87771;-51
2022/04/14 10:07:10;;;;;;;;;;;10.40;56.10;;;;;;5047252;28;86863;-51
2022/04/14 10:09:39;;;;;;;;;;;10.50;56.10;;;;;;5049481;28;87284;-51
2022/04/14 10:12:25;;;;;;;;;;;10.50;56.20;;;;;;5046685;28;87786;-51
2022/04/14 10:15:03;;;;;;;;;;;10.50;56.20;;;;;;5041554;28;87900;-51
2022/04/14 10:17:30;;;;;;;;;;;10.50;56.20;;;;;;5045927;28;87943;-51
2022/04/14 10:19:57;;;;;;;;;;;10.50;56.10;;;;;;5046966;27;86862;-51
2022/04/14 10:22:23;;;;;;;;;;;10.60;56.20;;;;;;5047157;28;87053;-51
2022/04/14 10:24:50;;;;;;;;;;;10.60;56.20;;;;;;5046981;28;87503;-51
2022/04/14 10:27:18;;;;;;;;;;;10.60;56.20;;;;;;5045592;28;86974;-51
2022/04/14 10:29:46;;;;;;;;;;;10.60;56.20;;;;;;5047478;28;86286;-51
2022/04/14 10:32:12;;;;;;;;;;;10.60;56.20;;;;;;5049432;28;88346;-51
2022/04/14 10:34:38;;;;;;;;;;;10.70;56.20;;;;;;5046926;28;87827;-51
2022/04/14 10:37:07;;;;;;;;;;;10.70;56.20;;;;;;5045793;28;89309;-51
2022/04/14 10:39:35;;;;;;;;;;;10.70;56.10;;;;;;5047149;28;86837;-51
2022/04/14 10:42:01;;;;;;;;;;;10.70;56.10;;;;;;5046796;28;88122;-52
2022/04/14 10:44:43;;;;;;;;;;;10.70;56.10;;;;;;5046255;28;88354;-51
2022/04/14 10:47:08;;;;;;;;;;;10.80;56.20;;;;;;5046918;28;87031;-51
2022/04/14 10:49:34;;;;;;;;;;;10.80;56.10;;;;;;5046653;28;87989;-51
2022/04/14 10:52:22;;;;;;;;;;;10.90;56.00;;;;;;5046125;28;88434;-51
2022/04/14 10:54:55;;;;;;;;;;;10.80;55.90;;;;;;5049902;28;86113;-51
2022/04/14 10:57:36;;;;;;;;;;;10.90;55.90;;;;;;5046175;28;88631;-51
2022/04/14 11:00:02;;;;;;;;;;;10.90;55.90;;;;;;5046488;28;86806;-51
2022/04/14 11:02:47;;;;;;;;;;;10.90;55.80;;;;;;5046069;28;87819;-51
2022/04/14 11:05:34;;;;;;;;;;;11.00;55.80;;;;;;5045740;28;87447;-51
2022/04/14 11:08:19;;;;;;;;;;;11.00;55.60;;;;;;5032027;28;86964;-51
2022/04/14 11:10:52;;;;;;;;;;;11.00;55.60;;;;;;5031453;28;87832;-52
2022/04/14 11:13:18;;;;;;;;;;;11.00;55.60;;;;;;5044903;28;88420;-51
2022/04/14 11:15:43;;;;;;;;;;;11.10;55.60;;;;;;5046343;28;87050;-51
2022/04/14 11:18:09;;;;;;;;;;;11.10;55.60;;;;;;5049064;28;86842;-51
2022/04/14 11:20:37;;;;;;;;;;;11.10;55.60;;;;;;5047010;28;86116;-52
2022/04/14 11:23:08;;;;;;;;;;;11.10;55.60;;;;;;5046354;28;87158;-51
2022/04/14 11:25:41;;;;;;;;;;;11.10;55.60;;;;;;5045765;28;87668;-51
2022/04/14 11:28:17;;;;;;;;;;;11.20;55.70;;;;;;5043976;28;88040;-51
2022/04/14 11:30:43;;;;;;;;;;;11.20;55.70;;;;;;5046093;27;88928;-52
2022/04/14 11:33:22;;;;;;;;;;;11.20;55.70;;;;;;5049128;28;87513;-51
2022/04/14 11:35:48;;;;;;;;;;;11.20;55.60;;;;;;5049720;28;86842;-51
2022/04/14 11:38:34;;;;;;;;;;;11.30;55.70;;;;;;5049718;28;87838;-51
2022/04/14 11:41:01;;;;;;;;;;;11.30;55.70;;;;;;4997776;28;88582;-51
2022/04/14 11:43:26;;;;;;;;;;;11.30;55.70;;;;;;5049547;28;87797;-52
2022/04/14 11:45:52;;;;;;;;;;;11.30;55.60;;;;;;5049646;28;86915;-51
2022/04/14 11:48:18;;;;;;;;;;;11.40;55.60;;;;;;5049603;28;86851;-52
2022/04/14 11:50:43;;;;;;;;;;;11.40;55.60;;;;;;5049554;28;87101;-52
2022/04/14 11:53:09;;;;;;;;;;;11.50;55.70;;;;;;5048327;28;89464;-52
2022/04/14 11:55:36;;;;;;;;;;;11.50;55.60;;;;;;5049441;28;86977;-51
2022/04/14 11:58:05;;;;;;;;;;;11.50;55.60;;;;;;5049393;28;86843;-52
2022/04/14 12:00:41;;;;;;;;;;;11.60;55.80;;;;;;5051777;28;88597;-52
2022/04/14 12:03:06;;;;;;;;;;;11.60;54.90;;;;;;5049626;28;86792;-52
2022/04/14 12:05:32;;;;;;;;;;;11.60;55.30;;;;;;5049227;28;87535;-52
2022/04/14 12:08:07;;;;;;;;;;;11.60;55.50;;;;;;5049176;28;87102;-52
2022/04/14 12:10:33;;;;;;;;;;;11.70;55.20;;;;;;5049541;28;87922;-52
2022/04/14 12:13:08;;;;;;;;;;;11.70;55.00;;;;;;5048759;28;87294;-52
2022/04/14 12:15:34;;;;;;;;;;;11.70;55.10;;;;;;5049070;28;86843;-52
2022/04/14 12:18:10;;;;;;;;;;;11.80;55.20;;;;;;5048447;28;88016;-52
2022/04/14 12:20:37;;;;;;;;;;;11.80;55.30;;;;;;5049030;28;87122;-52
2022/04/14 12:23:03;;;;;;;;;;;11.90;55.30;;;;;;5051941;28;86842;-53
2022/04/14 12:25:29;;;;;;;;;;;11.90;55.20;;;;;;5048550;28;87695;-53
2022/04/14 12:27:55;;;;;;;;;;;11.90;55.20;;;;;;5048499;28;86799;-52
2022/04/14 12:30:22;;;;;;;;;;;11.90;55.20;;;;;;5048806;28;87910;-52
2022/04/14 12:32:48;;;;;;;;;;;11.90;55.20;;;;;;5048030;28;87197;-52
2022/04/14 12:35:33;;;;;;;;;;;12.00;55.20;;;;;;5049167;28;86200;-52
2022/04/14 12:38:15;;;;;;;;;;;12.00;55.30;;;;;;5048682;28;87337;-52
2022/04/14 12:41:01;;;;;;;;;;;12.00;55.10;;;;;;5048058;28;87544;-53
2022/04/14 12:43:28;;;;;;;;;;;12.10;54.70;;;;;;5047078;27;88073;-52
2022/04/14 12:45:57;;;;;;;;;;;12.10;54.90;;;;;;5051126;28;88883;-52
2022/04/14 12:48:35;;;;;;;;;;;12.20;55.10;;;;;;5048621;28;86908;-52
2022/04/14 12:51:01;;;;;;;;;;;12.20;55.00;;;;;;5048849;28;86842;-52
2022/04/14 12:53:27;;;;;;;;;;;12.20;54.80;;;;;;5048161;28;87596;-52
2022/04/14 12:56:11;;;;;;;;;;;12.20;54.90;;;;;;5048722;28;87009;-52
2022/04/14 12:58:37;;;;;;;;;;;12.20;54.90;;;;;;5048457;28;87877;-52
2022/04/14 13:01:12;;;;;;;;;;;12.30;55.00;;;;;;5048838;28;86752;-52
2022/04/14 13:03:47;;;;;;;;;;;12.30;54.90;;;;;;5048405;28;86815;-52
2022/04/14 13:06:16;;;;;;;;;;;12.40;55.00;;;;;;5048266;28;87311;-52
2022/04/14 13:08:42;;;;;;;;;;;12.40;55.00;;;;;;5050097;28;89503;-52
2022/04/14 13:11:08;;;;;;;;;;;12.40;54.70;;;;;;5048401;28;87809;-52
2022/04/14 13:13:33;;;;;;;;;;;12.40;54.80;;;;;;5048054;28;87418;-52
2022/04/14 13:15:59;;;;;;;;;;;12.50;54.80;;;;;;5428665;22;88602;-51
2022/04/14 13:18:25;;;;;;;;;;;12.50;54.80;;;;;;5068756;27;87051;-50
2022/04/14 13:20:51;;;;;;;;;;;12.60;54.50;;;;;;5068110;27;88660;-50
2022/04/14 13:23:20;;;;;;;;;;;12.60;54.70;;;;;;5068352;27;86868;-50
2022/04/14 13:25:46;;;;;;;;;;;12.60;54.50;;;;;;5068914;27;87989;-50
2022/04/14 13:28:12;;;;;;;;;;;12.60;54.50;;;;;;5067775;27;88600;-51
2022/04/14 13:30:38;;;;;;;;;;;12.70;54.60;;;;;;5071189;27;87026;-51
2022/04/14 13:33:04;;;;;;;;;;;12.70;54.40;;;;;;5067221;27;88564;-50
2022/04/14 13:35:30;;;;;;;;;;;12.70;54.30;;;;;;5068126;27;87012;-51
2022/04/14 13:37:55;;;;;;;;;;;12.80;54.10;;;;;;5068234;27;87954;-51
2022/04/14 13:40:21;;;;;;;;;;;12.80;54.30;;;;;;5067660;27;88796;-51
2022/04/14 13:42:46;;;;;;;;;;;12.80;54.30;;;;;;5068100;27;86896;-51
2022/04/14 13:45:12;;;;;;;;;;;12.90;54.20;;;;;;5068266;27;86885;-50
2022/04/14 13:47:39;;;;;;;;;;;12.90;54.30;;;;;;5066507;27;87467;-50
2022/04/14 13:50:06;;;;;;;;;;;13.00;54.20;;;;;;5068363;27;86270;-51
2022/04/14 13:52:32;;;;;;;;;;;13.00;53.90;;;;;;5070400;27;87271;-50
2022/04/14 13:54:58;;;;;;;;;;;13.00;53.60;;;;;;5067513;27;87023;-51
2022/04/14 13:57:24;;;;;;;;;;;13.10;53.80;;;;;;5067300;27;87964;-50
2022/04/14 13:59:50;;;;;;;;;;;13.10;53.90;;;;;;5067640;27;86891;-51
2022/04/14 14:02:16;;;;;;;;;;;13.10;54.10;;;;;;5067828;27;87410;-51
2022/04/14 14:04:41;;;;;;;;;;;13.20;54.00;;;;;;5067777;27;88172;-51
2022/04/14 14:07:07;;;;;;;;;;;13.20;53.60;;;;;;5067526;27;87391;-52
2022/04/14 14:09:33;;;;;;;;;;;13.20;53.40;;;;;;5067622;27;86987;-51
2022/04/14 14:11:58;;;;;;;;;;;13.30;53.70;;;;;;5070013;27;87299;-52
2022/04/14 14:14:25;;;;;;;;;;;13.30;54.60;;;;;;5068009;27;86266;-51
2022/04/14 14:16:50;;;;;;;;;;;13.30;53.80;;;;;;5067314;27;86918;-51
2022/04/14 14:19:20;;;;;;;;;;;13.30;53.60;;;;;;5067344;27;87763;-50
2022/04/14 14:21:45;;;;;;;;;;;13.40;53.30;;;;;;5066947;27;88194;-51